PWSweather.com
Personal Weather Stations
Station Observations
WAREHAM1
West Wareham, MA 02576

West Wareham, MA 02576

Lat: 41.7961059, Lon: -70.775612

Elevation: 88

Station Type: Davis Vantage Vue

http://www.gateway2capecod.com

Latest ConditionsUpdated 10:38:03 PM EST Saturday, Jan 24, 2015
Currently Today's Max Today's Min Today's Average
Temperature 32.2°F0.1°C 36.5°F2.5°C 32.0°F0.0°C 34.0°F1.1°C
Dew Point 30.6°F-0.8°C 35.2°F1.8°C 27.1°F-2.7°C 32.1°F0.1°C
Winds 0.9 mph W1.4 kmh W 4.0 mph NW6.4 kmh NW - 1.6 mph 2.6 kmh
Wind Gusts 7.0 mph11.3 kmh 14.1 mph22.7 kmh - -
Humidity 94% 96% 82% 93%
Pressure 29.29 in991.9 mb 29.96 in1014.6 mb 29.08 in984.8 mb -
Precipitation - 0.99 in25.1 mm - -
Hour Temp Dew Point Humidity Winds Wind Gusts Pressure Precip Precip Rate Daily Precip Total
10:38 PM 32.2°F0.1°C 30.6°F-0.8°C 94% 0.9 mph W1.4 kmh W 7.0 mph11.3 kmh 29.29 in991.9 mb 0.00 in0.0 mm 0.00 in/hr0.0 mm/hr 0.99 in25.1 mm
10:28 PM 32.4°F0.2°C 30.7°F-0.7°C 94% 0.9 mph WSW1.4 kmh WSW 5.0 mph8.0 kmh 29.28 in991.5 mb 0.00 in0.0 mm 0.00 in/hr0.0 mm/hr 0.99 in25.1 mm
10:18 PM 32.4°F0.2°C 31.1°F-0.5°C 95% 0.9 mph WNW1.4 kmh WNW 4.0 mph6.4 kmh 29.27 in991.2 mb 0.00 in0.0 mm 0.00 in/hr0.0 mm/hr 0.99 in25.1 mm
10:08 PM 32.5°F0.3°C 31.3°F-0.4°C 95% 0.9 mph WNW1.4 kmh WNW 4.9 mph7.9 kmh 29.27 in991.2 mb 0.00 in0.0 mm 0.00 in/hr0.0 mm/hr 0.99 in25.1 mm
09:58 PM 32.7°F0.4°C 31.5°F-0.3°C 95% 0.9 mph WNW1.4 kmh WNW 4.0 mph6.4 kmh 29.28 in991.5 mb 0.00 in0.0 mm 0.00 in/hr0.0 mm/hr 0.99 in25.1 mm
09:48 PM 32.7°F0.4°C 31.5°F-0.3°C 95% 2.0 mph N3.2 kmh N 6.0 mph9.7 kmh 29.26 in990.9 mb 0.00 in0.0 mm 0.00 in/hr0.0 mm/hr 0.99 in25.1 mm
09:38 PM 32.7°F0.4°C 31.5°F-0.3°C 95% 2.0 mph NW3.2 kmh NW 6.9 mph11.1 kmh 29.26 in990.9 mb 0.00 in0.0 mm 0.00 in/hr0.0 mm/hr 0.99 in25.1 mm
09:28 PM 32.7°F0.4°C 31.5°F-0.3°C 95% 2.0 mph W3.2 kmh W 8.1 mph13.0 kmh 29.26 in990.9 mb 0.00 in0.0 mm 0.00 in/hr0.0 mm/hr 0.99 in25.1 mm
09:18 PM 32.7°F0.4°C 31.5°F-0.3°C 95% 2.0 mph WNW3.2 kmh WNW 6.9 mph11.1 kmh 29.25 in990.5 mb 0.00 in0.0 mm 0.00 in/hr0.0 mm/hr 0.99 in25.1 mm
09:08 PM 32.7°F0.4°C 31.5°F-0.3°C 95% 2.0 mph WNW3.2 kmh WNW 6.0 mph9.7 kmh 29.24 in990.2 mb 0.00 in0.0 mm 0.00 in/hr0.0 mm/hr 0.99 in25.1 mm
08:58 PM 32.7°F0.4°C 31.5°F-0.3°C 95% 0.9 mph WNW1.4 kmh WNW 4.9 mph7.9 kmh 29.23 in989.8 mb 0.00 in0.0 mm 0.00 in/hr0.0 mm/hr 0.99 in25.1 mm
08:48 PM 32.7°F0.4°C 31.5°F-0.3°C 95% 2.0 mph NW3.2 kmh NW 4.9 mph7.9 kmh 29.23 in989.8 mb 0.00 in0.0 mm 0.00 in/hr0.0 mm/hr 0.99 in25.1 mm
08:38 PM 32.7°F0.4°C 31.5°F-0.3°C 95% 2.0 mph NW3.2 kmh NW 6.9 mph11.1 kmh 29.22 in989.5 mb 0.00 in0.0 mm 0.00 in/hr0.0 mm/hr 0.99 in25.1 mm
08:28 PM 32.7°F0.4°C 31.5°F-0.3°C 95% 2.9 mph NW4.7 kmh NW 6.9 mph11.1 kmh 29.22 in989.5 mb 0.00 in0.0 mm 0.00 in/hr0.0 mm/hr 0.99 in25.1 mm
08:18 PM 32.7°F0.4°C 31.5°F-0.3°C 95% 2.0 mph W3.2 kmh W 6.0 mph9.7 kmh 29.21 in989.2 mb 0.00 in0.0 mm 0.00 in/hr0.0 mm/hr 0.99 in25.1 mm
08:07 PM 32.7°F0.4°C 31.5°F-0.3°C 95% 2.9 mph WNW4.7 kmh WNW 8.1 mph13.0 kmh 29.21 in989.2 mb 0.00 in0.0 mm 0.00 in/hr0.0 mm/hr 0.99 in25.1 mm
07:57 PM 32.9°F0.5°C 31.6°F-0.2°C 95% 2.0 mph W3.2 kmh W 10.1 mph16.3 kmh 29.21 in989.2 mb 0.00 in0.0 mm 0.00 in/hr0.0 mm/hr 0.99 in25.1 mm
07:47 PM 32.9°F0.5°C 31.6°F-0.2°C 95% 2.0 mph W3.2 kmh W 10.0 mph16.1 kmh 29.20 in988.8 mb 0.00 in0.0 mm 0.00 in/hr0.0 mm/hr 0.99 in25.1 mm
07:37 PM 32.9°F0.5°C 31.6°F-0.2°C 95% 2.9 mph NW4.7 kmh NW 8.9 mph14.3 kmh 29.19 in988.5 mb 0.00 in0.0 mm 0.00 in/hr0.0 mm/hr 0.99 in25.1 mm
07:27 PM 32.9°F0.5°C 31.6°F-0.2°C 95% 2.9 mph NW4.7 kmh NW 9.0 mph14.5 kmh 29.19 in988.5 mb 0.00 in0.0 mm 0.00 in/hr0.0 mm/hr 0.99 in25.1 mm
07:17 PM 32.9°F0.5°C 31.6°F-0.2°C 95% 2.9 mph WSW4.7 kmh WSW 8.0 mph12.9 kmh 29.18 in988.1 mb 0.00 in0.0 mm 0.00 in/hr0.0 mm/hr 0.99 in25.1 mm
07:07 PM 32.9°F0.5°C 31.6°F-0.2°C 95% 2.9 mph NW4.7 kmh NW 10.1 mph16.3 kmh 29.18 in988.1 mb 0.01 in0.3 mm 0.00 in/hr0.0 mm/hr 0.99 in25.1 mm
06:57 PM 32.9°F0.5°C 31.6°F-0.2°C 95% 2.9 mph WNW4.7 kmh WNW 8.1 mph13.0 kmh 29.17 in987.8 mb 0.01 in0.3 mm 0.00 in/hr0.0 mm/hr 0.99 in25.1 mm
06:47 PM 33.1°F0.6°C 31.8°F-0.1°C 95% 2.9 mph W4.7 kmh W 8.9 mph14.3 kmh 29.17 in987.8 mb 0.02 in0.5 mm 0.00 in/hr0.0 mm/hr 0.99 in25.1 mm
06:37 PM 33.6°F0.9°C 32.0°F0.0°C 94% 4.0 mph NW6.4 kmh NW 8.9 mph14.3 kmh 29.16 in987.5 mb 0.02 in0.5 mm 0.00 in/hr0.0 mm/hr 0.99 in25.1 mm
06:27 PM 34.3°F1.3°C 32.7°F0.4°C 94% 2.9 mph W4.7 kmh W 12.1 mph19.5 kmh 29.16 in987.5 mb 0.03 in0.8 mm 0.00 in/hr0.0 mm/hr 0.99 in25.1 mm
06:17 PM 35.1°F1.7°C 33.8°F1.0°C 95% 2.9 mph W4.7 kmh W 9.0 mph14.5 kmh 29.16 in987.5 mb 0.03 in0.8 mm 0.00 in/hr0.0 mm/hr 0.99 in25.1 mm
06:07 PM 35.4°F1.9°C 34.2°F1.2°C 95% 2.9 mph WNW4.7 kmh WNW 9.0 mph14.5 kmh 29.16 in987.5 mb 0.03 in0.8 mm 0.00 in/hr0.0 mm/hr 0.98 in24.9 mm
05:57 PM 35.6°F2.0°C 34.3°F1.3°C 95% 2.9 mph WNW4.7 kmh WNW 6.9 mph11.1 kmh 29.15 in987.1 mb 0.03 in0.8 mm 0.00 in/hr0.0 mm/hr 0.98 in24.9 mm
05:47 PM 35.8°F2.1°C 34.5°F1.4°C 95% 2.9 mph NW4.7 kmh NW 8.1 mph13.0 kmh 29.13 in986.5 mb 0.03 in0.8 mm 0.00 in/hr0.0 mm/hr 0.97 in24.6 mm
05:37 PM 35.8°F2.1°C 34.5°F1.4°C 95% 2.9 mph NW4.7 kmh NW 10.1 mph16.3 kmh 29.13 in986.5 mb 0.03 in0.8 mm 0.00 in/hr0.0 mm/hr 0.97 in24.6 mm
05:27 PM 35.8°F2.1°C 34.5°F1.4°C 95% 2.9 mph NW4.7 kmh NW 10.1 mph16.3 kmh 29.12 in986.1 mb 0.03 in0.8 mm 0.00 in/hr0.0 mm/hr 0.96 in24.4 mm
05:17 PM 36.0°F2.2°C 34.7°F1.5°C 95% 2.9 mph W4.7 kmh W 9.0 mph14.5 kmh 29.11 in985.8 mb 0.03 in0.8 mm 0.00 in/hr0.0 mm/hr 0.96 in24.4 mm
05:07 PM 36.0°F2.2°C 34.7°F1.5°C 95% 2.9 mph W4.7 kmh W 7.0 mph11.3 kmh 29.10 in985.4 mb 0.03 in0.8 mm 0.00 in/hr0.0 mm/hr 0.95 in24.1 mm
04:57 PM 36.0°F2.2°C 34.7°F1.5°C 95% 2.9 mph NW4.7 kmh NW 6.9 mph11.1 kmh 29.08 in984.8 mb 0.03 in0.8 mm 0.00 in/hr0.0 mm/hr 0.95 in24.1 mm
04:47 PM 36.0°F2.2°C 34.7°F1.5°C 95% 2.9 mph NE4.7 kmh NE 6.9 mph11.1 kmh 29.08 in984.8 mb 0.04 in1.0 mm 0.00 in/hr0.0 mm/hr 0.94 in23.9 mm
04:37 PM 36.1°F2.3°C 34.9°F1.6°C 95% 2.9 mph NW4.7 kmh NW 9.0 mph14.5 kmh 29.09 in985.1 mb 0.05 in1.3 mm 0.00 in/hr0.0 mm/hr 0.94 in23.9 mm
04:27 PM 36.1°F2.3°C 34.9°F1.6°C 95% 4.0 mph WNW6.4 kmh WNW 14.1 mph22.7 kmh 29.13 in986.5 mb 0.05 in1.3 mm 0.00 in/hr0.0 mm/hr 0.93 in23.6 mm
04:17 PM 36.3°F2.4°C 35.1°F1.7°C 95% 2.9 mph NW4.7 kmh NW 14.1 mph22.7 kmh 29.13 in986.5 mb 0.05 in1.3 mm 0.00 in/hr0.0 mm/hr 0.92 in23.4 mm
04:07 PM 36.3°F2.4°C 35.1°F1.7°C 95% 2.9 mph NNE4.7 kmh NNE 11.0 mph17.7 kmh 29.13 in986.5 mb 0.05 in1.3 mm 0.00 in/hr0.0 mm/hr 0.91 in23.1 mm
03:57 PM 36.5°F2.5°C 35.2°F1.8°C 95% 4.0 mph NNW6.4 kmh NNW 9.0 mph14.5 kmh 29.13 in986.5 mb 0.06 in1.5 mm 0.00 in/hr0.0 mm/hr 0.91 in23.1 mm
03:47 PM 36.5°F2.5°C 35.2°F1.8°C 95% 4.0 mph N6.4 kmh N 11.0 mph17.7 kmh 29.13 in986.5 mb 0.06 in1.5 mm 0.00 in/hr0.0 mm/hr 0.90 in22.9 mm
03:37 PM 36.5°F2.5°C 35.2°F1.8°C 95% 4.0 mph NNW6.4 kmh NNW 11.0 mph17.7 kmh 29.14 in986.8 mb 0.06 in1.5 mm 0.00 in/hr0.0 mm/hr 0.89 in22.6 mm
03:27 PM 36.5°F2.5°C 35.2°F1.8°C 95% 2.9 mph W4.7 kmh W 8.9 mph14.3 kmh 29.17 in987.8 mb 0.06 in1.5 mm 0.00 in/hr0.0 mm/hr 0.88 in22.4 mm
03:17 PM 36.5°F2.5°C 35.2°F1.8°C 95% 4.0 mph NW6.4 kmh NW 8.1 mph13.0 kmh 29.19 in988.5 mb 0.06 in1.5 mm 0.00 in/hr0.0 mm/hr 0.87 in22.1 mm
03:07 PM 36.3°F2.4°C 35.1°F1.7°C 95% 2.9 mph W4.7 kmh W 9.0 mph14.5 kmh 29.19 in988.5 mb 0.06 in1.5 mm 0.00 in/hr0.0 mm/hr 0.86 in21.8 mm
02:57 PM 36.3°F2.4°C 35.1°F1.7°C 95% 2.9 mph NNE4.7 kmh NNE 8.9 mph14.3 kmh 29.18 in988.1 mb 0.06 in1.5 mm 0.00 in/hr0.0 mm/hr 0.85 in21.6 mm
02:47 PM 36.3°F2.4°C 35.2°F1.8°C 96% 2.9 mph ESE4.7 kmh ESE 13.0 mph20.9 kmh 29.22 in989.5 mb 0.06 in1.5 mm 0.00 in/hr0.0 mm/hr 0.84 in21.3 mm
02:37 PM 36.1°F2.3°C 34.9°F1.6°C 95% 4.0 mph NE6.4 kmh NE 11.0 mph17.7 kmh 29.21 in989.2 mb 0.06 in1.5 mm 0.00 in/hr0.0 mm/hr 0.83 in21.1 mm
02:27 PM 36.3°F2.4°C 35.2°F1.8°C 96% 2.9 mph ENE4.7 kmh ENE 11.0 mph17.7 kmh 29.25 in990.5 mb 0.07 in1.8 mm 0.00 in/hr0.0 mm/hr 0.82 in20.8 mm
02:17 PM 36.1°F2.3°C 35.1°F1.7°C 96% 2.9 mph N4.7 kmh N 8.9 mph14.3 kmh 29.27 in991.2 mb 0.07 in1.8 mm 0.00 in/hr0.0 mm/hr 0.81 in20.6 mm
02:07 PM 36.1°F2.3°C 35.1°F1.7°C 96% 2.9 mph E4.7 kmh E 8.9 mph14.3 kmh 29.26 in990.9 mb 0.08 in2.0 mm 0.00 in/hr0.0 mm/hr 0.80 in20.3 mm
01:57 PM 36.0°F2.2°C 34.9°F1.6°C 96% 4.0 mph NW6.4 kmh NW 13.0 mph20.9 kmh 29.24 in990.2 mb 0.09 in2.3 mm 0.06 in/hr1.5 mm/hr 0.79 in20.1 mm
01:47 PM 36.0°F2.2°C 34.9°F1.6°C 96% 2.9 mph NE4.7 kmh NE 13.0 mph20.9 kmh 29.23 in989.8 mb 0.08 in2.0 mm 0.00 in/hr0.0 mm/hr 0.78 in19.8 mm
01:37 PM 35.8°F2.1°C 34.7°F1.5°C 96% 4.0 mph NE6.4 kmh NE 10.1 mph16.3 kmh 29.27 in991.2 mb 0.10 in2.5 mm 0.00 in/hr0.0 mm/hr 0.76 in19.3 mm
01:27 PM 35.8°F2.1°C 34.7°F1.5°C 96% 4.0 mph NE6.4 kmh NE 13.0 mph20.9 kmh 29.25 in990.5 mb 0.11 in2.8 mm 0.00 in/hr0.0 mm/hr 0.75 in19.1 mm
01:17 PM 35.6°F2.0°C 34.5°F1.4°C 96% 2.9 mph E4.7 kmh E 8.9 mph14.3 kmh 29.28 in991.5 mb 0.11 in2.8 mm 0.00 in/hr0.0 mm/hr 0.73 in18.5 mm
01:07 PM 35.8°F2.1°C 34.7°F1.5°C 96% 2.0 mph NW3.2 kmh NW 6.0 mph9.7 kmh 29.32 in992.9 mb 0.12 in3.0 mm 0.00 in/hr0.0 mm/hr 0.72 in18.3 mm
12:57 PM 35.6°F2.0°C 34.5°F1.4°C 96% 2.9 mph E4.7 kmh E 10.1 mph16.3 kmh 29.32 in992.9 mb 0.12 in3.0 mm 0.00 in/hr0.0 mm/hr 0.70 in17.8 mm
12:47 PM 35.4°F1.9°C 34.3°F1.3°C 96% 2.0 mph ENE3.2 kmh ENE 6.9 mph11.1 kmh 29.35 in993.9 mb 0.12 in3.0 mm 0.00 in/hr0.0 mm/hr 0.69 in17.5 mm
12:37 PM 35.4°F1.9°C 34.3°F1.3°C 96% 2.0 mph NNW3.2 kmh NNW 8.1 mph13.0 kmh 29.37 in994.6 mb 0.13 in3.3 mm 0.00 in/hr0.0 mm/hr 0.66 in16.8 mm
12:27 PM 35.2°F1.8°C 34.2°F1.2°C 96% 2.9 mph NE4.7 kmh NE 7.0 mph11.3 kmh 29.37 in994.6 mb 0.15 in3.8 mm 0.00 in/hr0.0 mm/hr 0.64 in16.3 mm
12:17 PM 35.2°F1.8°C 34.2°F1.2°C 96% 2.0 mph NE3.2 kmh NE 6.9 mph11.1 kmh 29.37 in994.6 mb 0.18 in4.6 mm 0.00 in/hr0.0 mm/hr 0.62 in15.7 mm
12:07 PM 35.1°F1.7°C 34.0°F1.1°C 96% 2.0 mph NE3.2 kmh NE 6.0 mph9.7 kmh 29.39 in995.3 mb 0.21 in5.3 mm 0.00 in/hr0.0 mm/hr 0.60 in15.2 mm
11:57 AM 34.9°F1.6°C 33.8°F1.0°C 96% 0.9 mph NE1.4 kmh NE 6.0 mph9.7 kmh 29.41 in995.9 mb 0.21 in5.3 mm 0.00 in/hr0.0 mm/hr 0.58 in14.7 mm
11:47 AM 34.7°F1.5°C 33.6°F0.9°C 96% 2.0 mph NNE3.2 kmh NNE 10.1 mph16.3 kmh 29.42 in996.3 mb 0.22 in5.6 mm 0.00 in/hr0.0 mm/hr 0.55 in14.0 mm
11:37 AM 34.5°F1.4°C 33.4°F0.8°C 96% 2.0 mph N3.2 kmh N 6.0 mph9.7 kmh 29.44 in997.0 mb 0.24 in6.1 mm 0.00 in/hr0.0 mm/hr 0.53 in13.5 mm
11:27 AM 34.3°F1.3°C 33.3°F0.7°C 96% 2.0 mph NW3.2 kmh NW 6.0 mph9.7 kmh 29.44 in997.0 mb 0.24 in6.1 mm 0.12 in/hr3.0 mm/hr 0.49 in12.4 mm
11:17 AM 34.0°F1.1°C 32.7°F0.4°C 95% 0.9 mph NE1.4 kmh NE 5.0 mph8.0 kmh 29.47 in998.0 mb 0.22 in5.6 mm 0.18 in/hr4.6 mm/hr 0.44 in11.2 mm
11:07 AM 33.8°F1.0°C 32.5°F0.3°C 95% 2.0 mph NNE3.2 kmh NNE 8.1 mph13.0 kmh 29.49 in998.6 mb 0.19 in4.8 mm 0.00 in/hr0.0 mm/hr 0.39 in9.9 mm
10:57 AM 33.6°F0.9°C 32.4°F0.2°C 95% 0.9 mph NE1.4 kmh NE 4.0 mph6.4 kmh 29.50 in999.0 mb 0.19 in4.8 mm 0.06 in/hr1.5 mm/hr 0.35 in8.9 mm
10:47 AM 33.6°F0.9°C 32.4°F0.2°C 95% 0.9 mph NE1.4 kmh NE 5.0 mph8.0 kmh 29.52 in999.7 mb 0.18 in4.6 mm 0.00 in/hr0.0 mm/hr 0.32 in8.1 mm
10:37 AM 33.6°F0.9°C 32.4°F0.2°C 95% 2.0 mph NNE3.2 kmh NNE 7.0 mph11.3 kmh 29.55 in1000.7 mb 0.18 in4.6 mm 0.12 in/hr3.0 mm/hr 0.28 in7.1 mm
10:27 AM 33.6°F0.9°C 32.4°F0.2°C 95% 2.0 mph N3.2 kmh N 7.0 mph11.3 kmh 29.56 in1001.0 mb 0.16 in4.1 mm 0.06 in/hr1.5 mm/hr 0.24 in6.1 mm
10:17 AM 33.6°F0.9°C 32.4°F0.2°C 95% 2.9 mph NE4.7 kmh NE 6.9 mph11.1 kmh 29.57 in1001.4 mb 0.15 in3.8 mm 0.06 in/hr1.5 mm/hr 0.21 in5.3 mm
10:07 AM 33.4°F0.8°C 32.2°F0.1°C 95% 2.0 mph E3.2 kmh E 6.0 mph9.7 kmh 29.57 in1001.4 mb 0.14 in3.6 mm 0.02 in/hr0.5 mm/hr 0.19 in4.8 mm
09:57 AM 33.4°F0.8°C 32.2°F0.1°C 95% 2.0 mph ENE3.2 kmh ENE 4.9 mph7.9 kmh 29.59 in1002.0 mb 0.12 in3.0 mm 0.06 in/hr1.5 mm/hr 0.16 in4.1 mm
09:47 AM 33.3°F0.7°C 32.0°F0.0°C 95% 2.0 mph E3.2 kmh E 4.0 mph6.4 kmh 29.60 in1002.4 mb 0.11 in2.8 mm 0.12 in/hr3.0 mm/hr 0.13 in3.3 mm
09:37 AM 33.3°F0.7°C 32.0°F0.0°C 95% 0.9 mph ENE1.4 kmh ENE 4.0 mph6.4 kmh 29.62 in1003.0 mb 0.09 in2.3 mm 0.06 in/hr1.5 mm/hr 0.10 in2.5 mm
09:27 AM 33.3°F0.7°C 32.0°F0.0°C 95% 0.9 mph ENE1.4 kmh ENE 4.0 mph6.4 kmh 29.64 in1003.7 mb 0.08 in2.0 mm 0.12 in/hr3.0 mm/hr 0.08 in2.0 mm
09:17 AM 33.1°F0.6°C 31.8°F-0.1°C 95% 0.9 mph ENE1.4 kmh ENE 2.0 mph3.2 kmh 29.65 in1004.1 mb 0.06 in1.5 mm 0.06 in/hr1.5 mm/hr 0.06 in1.5 mm
09:07 AM 33.1°F0.6°C 31.8°F-0.1°C 95% 0.9 mph E1.4 kmh E 3.0 mph4.8 kmh 29.65 in1004.1 mb 0.05 in1.3 mm 0.02 in/hr0.5 mm/hr 0.05 in1.3 mm
08:57 AM 33.1°F0.6°C 31.8°F-0.1°C 95% Calm Calm 2.0 mph3.2 kmh 29.64 in1003.7 mb 0.03 in0.8 mm 0.06 in/hr1.5 mm/hr 0.03 in0.8 mm
08:47 AM 33.1°F0.6°C 31.8°F-0.1°C 95% 0.9 mph E1.4 kmh E 4.0 mph6.4 kmh 29.65 in1004.1 mb 0.02 in0.5 mm 0.12 in/hr3.0 mm/hr 0.02 in0.5 mm
08:37 AM 33.1°F0.6°C 31.8°F-0.1°C 95% Calm Calm 4.0 mph6.4 kmh 29.66 in1004.4 mb 0.00 in0.0 mm 0.00 in/hr0.0 mm/hr 0.01 in0.3 mm
08:27 AM 33.1°F0.6°C 31.8°F-0.1°C 95% Calm Calm 2.0 mph3.2 kmh 29.67 in1004.7 mb 0.00 in0.0 mm 0.00 in/hr0.0 mm/hr 0.00 in0.0 mm
08:17 AM 33.1°F0.6°C 31.8°F-0.1°C 95% Calm Calm 0.9 mph1.4 kmh 29.68 in1005.1 mb 0.00 in0.0 mm 0.00 in/hr0.0 mm/hr 0.00 in0.0 mm
08:07 AM 33.1°F0.6°C 31.8°F-0.1°C 95% Calm Calm -- 29.69 in1005.4 mb 0.00 in0.0 mm 0.00 in/hr0.0 mm/hr 0.00 in0.0 mm
07:57 AM 33.1°F0.6°C 31.8°F-0.1°C 95% Calm Calm 1.0 mph1.6 kmh 29.70 in1005.8 mb 0.00 in0.0 mm 0.00 in/hr0.0 mm/hr 0.00 in0.0 mm
07:47 AM 32.9°F0.5°C 31.3°F-0.4°C 94% Calm Calm -- 29.70 in1005.8 mb 0.00 in0.0 mm 0.00 in/hr0.0 mm/hr 0.00 in0.0 mm
07:37 AM 32.7°F0.4°C 31.1°F-0.5°C 94% Calm Calm -- 29.71 in1006.1 mb 0.00 in0.0 mm 0.00 in/hr0.0 mm/hr 0.00 in0.0 mm
07:27 AM 32.7°F0.4°C 31.1°F-0.5°C 94% Calm Calm -- 29.73 in1006.8 mb 0.00 in0.0 mm 0.00 in/hr0.0 mm/hr 0.00 in0.0 mm
07:17 AM 32.7°F0.4°C 31.1°F-0.5°C 94% Calm Calm -- 29.74 in1007.1 mb 0.00 in0.0 mm 0.00 in/hr0.0 mm/hr 0.00 in0.0 mm
07:07 AM 32.7°F0.4°C 31.1°F-0.5°C 94% Calm Calm -- 29.75 in1007.5 mb 0.00 in0.0 mm 0.00 in/hr0.0 mm/hr 0.00 in0.0 mm
06:57 AM 32.7°F0.4°C 31.1°F-0.5°C 94% Calm Calm -- 29.77 in1008.1 mb 0.00 in0.0 mm 0.00 in/hr0.0 mm/hr 0.00 in0.0 mm
06:47 AM 32.7°F0.4°C 31.1°F-0.5°C 94% Calm Calm -- 29.78 in1008.5 mb 0.00 in0.0 mm 0.00 in/hr0.0 mm/hr 0.00 in0.0 mm
06:37 AM 32.7°F0.4°C 31.1°F-0.5°C 94% Calm Calm -- 29.78 in1008.5 mb 0.00 in0.0 mm 0.00 in/hr0.0 mm/hr 0.00 in0.0 mm
06:27 AM 32.9°F0.5°C 31.3°F-0.4°C 94% Calm Calm -- 29.79 in1008.8 mb 0.00 in0.0 mm 0.00 in/hr0.0 mm/hr 0.00 in0.0 mm
06:17 AM 32.7°F0.4°C 31.1°F-0.5°C 94% Calm Calm -- 29.80 in1009.1 mb 0.00 in0.0 mm 0.00 in/hr0.0 mm/hr 0.00 in0.0 mm
06:07 AM 32.7°F0.4°C 31.1°F-0.5°C 94% Calm Calm -- 29.81 in1009.5 mb 0.00 in0.0 mm 0.00 in/hr0.0 mm/hr 0.00 in0.0 mm
05:57 AM 32.7°F0.4°C 30.9°F-0.6°C 93% Calm Calm -- 29.82 in1009.8 mb 0.00 in0.0 mm 0.00 in/hr0.0 mm/hr 0.00 in0.0 mm
05:47 AM 32.9°F0.5°C 31.1°F-0.5°C 93% Calm Calm -- 29.83 in1010.2 mb 0.00 in0.0 mm 0.00 in/hr0.0 mm/hr 0.00 in0.0 mm
05:37 AM 32.9°F0.5°C 31.1°F-0.5°C 93% Calm Calm -- 29.83 in1010.2 mb 0.00 in0.0 mm 0.00 in/hr0.0 mm/hr 0.00 in0.0 mm
05:27 AM 32.9°F0.5°C 31.1°F-0.5°C 93% Calm Calm -- 29.83 in1010.2 mb 0.00 in0.0 mm 0.00 in/hr0.0 mm/hr 0.00 in0.0 mm
05:17 AM 32.9°F0.5°C 31.1°F-0.5°C 93% Calm Calm -- 29.83 in1010.2 mb 0.00 in0.0 mm 0.00 in/hr0.0 mm/hr 0.00 in0.0 mm
05:07 AM 33.1°F0.6°C 31.3°F-0.4°C 93% Calm Calm -- 29.83 in1010.2 mb 0.00 in0.0 mm 0.00 in/hr0.0 mm/hr 0.00 in0.0 mm
04:57 AM 33.1°F0.6°C 31.1°F-0.5°C 92% Calm Calm -- 29.83 in1010.2 mb 0.00 in0.0 mm 0.00 in/hr0.0 mm/hr 0.00 in0.0 mm
04:47 AM 33.3°F0.7°C 31.1°F-0.5°C 92% Calm Calm -- 29.84 in1010.5 mb 0.00 in0.0 mm 0.00 in/hr0.0 mm/hr 0.00 in0.0 mm
04:37 AM 33.3°F0.7°C 30.9°F-0.6°C 91% Calm Calm -- 29.84 in1010.5 mb 0.00 in0.0 mm 0.00 in/hr0.0 mm/hr 0.00 in0.0 mm
04:27 AM 33.4°F0.8°C 31.1°F-0.5°C 91% Calm Calm -- 29.85 in1010.8 mb 0.00 in0.0 mm 0.00 in/hr0.0 mm/hr 0.00 in0.0 mm
04:17 AM 33.6°F0.9°C 30.9°F-0.6°C 90% Calm Calm -- 29.85 in1010.8 mb 0.00 in0.0 mm 0.00 in/hr0.0 mm/hr 0.00 in0.0 mm
04:07 AM 33.6°F0.9°C 30.9°F-0.6°C 90% Calm Calm -- 29.85 in1010.8 mb 0.00 in0.0 mm 0.00 in/hr0.0 mm/hr 0.00 in0.0 mm
03:57 AM 34.0°F1.1°C 31.1°F-0.5°C 89% Calm Calm 0.9 mph1.4 kmh 29.85 in1010.8 mb 0.00 in0.0 mm 0.00 in/hr0.0 mm/hr 0.00 in0.0 mm
03:47 AM 34.2°F1.2°C 30.9°F-0.6°C 88% Calm Calm 2.0 mph3.2 kmh 29.87 in1011.5 mb 0.00 in0.0 mm 0.00 in/hr0.0 mm/hr 0.00 in0.0 mm
03:37 AM 34.3°F1.3°C 30.9°F-0.6°C 87% 0.9 mph WSW1.4 kmh WSW 2.0 mph3.2 kmh 29.86 in1011.2 mb 0.00 in0.0 mm 0.00 in/hr0.0 mm/hr 0.00 in0.0 mm
03:27 AM 34.9°F1.6°C 30.9°F-0.6°C 85% 0.9 mph SW1.4 kmh SW 4.0 mph6.4 kmh 29.87 in1011.5 mb 0.00 in0.0 mm 0.00 in/hr0.0 mm/hr 0.00 in0.0 mm
03:17 AM 35.2°F1.8°C 30.6°F-0.8°C 83% 0.9 mph SW1.4 kmh SW 2.9 mph4.7 kmh 29.88 in1011.9 mb 0.00 in0.0 mm 0.00 in/hr0.0 mm/hr 0.00 in0.0 mm
03:07 AM 35.2°F1.8°C 30.4°F-0.9°C 82% 0.9 mph WSW1.4 kmh WSW 6.0 mph9.7 kmh 29.88 in1011.9 mb 0.00 in0.0 mm 0.00 in/hr0.0 mm/hr 0.00 in0.0 mm
02:57 AM 35.1°F1.7°C 30.4°F-0.9°C 83% 0.9 mph SW1.4 kmh SW 4.0 mph6.4 kmh 29.88 in1011.9 mb 0.00 in0.0 mm 0.00 in/hr0.0 mm/hr 0.00 in0.0 mm
02:47 AM 34.7°F1.5°C 30.0°F-1.1°C 83% 2.0 mph SW3.2 kmh SW 5.0 mph8.0 kmh 29.89 in1012.2 mb 0.00 in0.0 mm 0.00 in/hr0.0 mm/hr 0.00 in0.0 mm
02:37 AM 34.5°F1.4°C 29.8°F-1.2°C 83% 0.9 mph S1.4 kmh S 2.9 mph4.7 kmh 29.90 in1012.5 mb 0.00 in0.0 mm 0.00 in/hr0.0 mm/hr 0.00 in0.0 mm
02:27 AM 34.2°F1.2°C 29.5°F-1.4°C 83% 0.9 mph SW1.4 kmh SW 2.9 mph4.7 kmh 29.90 in1012.5 mb 0.00 in0.0 mm 0.00 in/hr0.0 mm/hr 0.00 in0.0 mm
02:17 AM 34.0°F1.1°C 29.7°F-1.3°C 84% Calm Calm 2.9 mph4.7 kmh 29.91 in1012.9 mb 0.00 in0.0 mm 0.00 in/hr0.0 mm/hr 0.00 in0.0 mm
02:07 AM 33.8°F1.0°C 29.1°F-1.6°C 83% 0.9 mph SW1.4 kmh SW 3.0 mph4.8 kmh 29.92 in1013.2 mb 0.00 in0.0 mm 0.00 in/hr0.0 mm/hr 0.00 in0.0 mm
01:57 AM 33.6°F0.9°C 28.9°F-1.7°C 83% Calm Calm 2.0 mph3.2 kmh 29.92 in1013.2 mb 0.00 in0.0 mm 0.00 in/hr0.0 mm/hr 0.00 in0.0 mm
01:47 AM 33.4°F0.8°C 28.8°F-1.8°C 83% 0.9 mph SSW1.4 kmh SSW 2.9 mph4.7 kmh 29.92 in1013.2 mb 0.00 in0.0 mm 0.00 in/hr0.0 mm/hr 0.00 in0.0 mm
01:37 AM 33.3°F0.7°C 28.6°F-1.9°C 83% Calm Calm 0.9 mph1.4 kmh 29.93 in1013.5 mb 0.00 in0.0 mm 0.00 in/hr0.0 mm/hr 0.00 in0.0 mm
01:27 AM 33.1°F0.6°C 28.4°F-2.0°C 83% Calm Calm 2.0 mph3.2 kmh 29.94 in1013.9 mb 0.00 in0.0 mm 0.00 in/hr0.0 mm/hr 0.00 in0.0 mm
01:17 AM 33.1°F0.6°C 28.2°F-2.1°C 82% Calm Calm 0.9 mph1.4 kmh 29.94 in1013.9 mb 0.00 in0.0 mm 0.00 in/hr0.0 mm/hr 0.00 in0.0 mm
01:07 AM 33.1°F0.6°C 28.2°F-2.1°C 82% Calm Calm 2.0 mph3.2 kmh 29.95 in1014.2 mb 0.00 in0.0 mm 0.00 in/hr0.0 mm/hr 0.00 in0.0 mm
12:57 AM 32.9°F0.5°C 28.0°F-2.2°C 82% Calm Calm 2.0 mph3.2 kmh 29.96 in1014.6 mb 0.00 in0.0 mm 0.00 in/hr0.0 mm/hr 0.00 in0.0 mm
12:47 AM 32.7°F0.4°C 27.9°F-2.3°C 82% 0.9 mph SW1.4 kmh SW 2.0 mph3.2 kmh 29.96 in1014.6 mb 0.00 in0.0 mm 0.00 in/hr0.0 mm/hr 0.00 in0.0 mm
12:37 AM 32.7°F0.4°C 27.9°F-2.3°C 82% 0.9 mph WSW1.4 kmh WSW 2.9 mph4.7 kmh 29.96 in1014.6 mb 0.00 in0.0 mm 0.00 in/hr0.0 mm/hr 0.00 in0.0 mm
12:27 AM 32.5°F0.3°C 27.7°F-2.4°C 82% 0.9 mph SSW1.4 kmh SSW 2.9 mph4.7 kmh 29.96 in1014.6 mb 0.00 in0.0 mm 0.00 in/hr0.0 mm/hr 0.00 in0.0 mm
12:17 AM 32.4°F0.2°C 27.5°F-2.5°C 82% 0.9 mph SW1.4 kmh SW 2.9 mph4.7 kmh 29.96 in1014.6 mb 0.00 in0.0 mm 0.00 in/hr0.0 mm/hr 0.00 in0.0 mm
12:07 AM 32.0°F0.0°C 27.1°F-2.7°C 82% 0.9 mph SSW1.4 kmh SSW 2.9 mph4.7 kmh 29.96 in1014.6 mb 0.00 in0.0 mm 0.00 in/hr0.0 mm/hr 0.00 in0.0 mm